Time;durP1;ratioP1;P1;durP2;ratioP2;P2;SDS_P1;SDS_P2;PMS_P1;PMS_P2;Temp;Humidity;BMP_temperature;BMP_pressure;BME280_temperature;BME280_humidity;BME280_pressure;Samples;Min_cycle;Max_cycle;Signal;HPM_P1;HPM_P2
2023/06/28 00:00:56;;;;;;;9.95;3.15;;;;;;;22.55;92.43;96344.38;5093497;27;20043;-84
2023/06/28 00:03:21;;;;;;;6.10;2.35;;;;;;;22.64;88.75;96341.38;5095791;27;20047;-83
2023/06/28 00:05:47;;;;;;;6.25;2.40;;;;;;;22.36;89.63;96346.31;5123969;27;20042;-83
2023/06/28 00:08:12;;;;;;;6.80;2.30;;;;;;;22.09;90.68;96355.78;5079774;28;20019;-84
2023/06/28 00:10:44;;;;;;;6.28;2.22;;;;;;;22.28;90.32;96354.72;5106646;28;20023;-84
2023/06/28 00:13:10;;;;;;;6.68;2.33;;;;;;;22.53;89.09;96362.53;5103815;28;20031;-84
2023/06/28 00:15:35;;;;;;;6.43;1.95;;;;;;;22.19;92.49;96358.75;5097153;28;20488;-84
2023/06/28 00:18:02;;;;;;;7.47;2.40;;;;;;;22.19;97.62;96363.31;5101922;28;20039;-83
2023/06/28 00:20:28;;;;;;;4.97;2.33;;;;;;;22.06;99.45;96366.97;5076676;28;20078;-83
2023/06/28 00:22:55;;;;;;;6.75;2.38;;;;;;;22.42;100.00;96365.22;5090245;28;20024;-83
2023/06/28 00:25:21;;;;;;;6.45;2.17;;;;;;;22.18;100.00;96373.22;5086925;27;20447;-83
2023/06/28 00:27:46;;;;;;;5.68;2.28;;;;;;;22.03;100.00;96370.09;5102821;27;20031;-83
2023/06/28 00:30:12;;;;;;;4.50;2.20;;;;;;;22.28;100.00;96370.78;5106244;27;20481;-82
2023/06/28 00:32:38;;;;;;;9.95;1.98;;;;;;;21.82;100.00;96382.13;5091427;27;20046;-83
2023/06/28 00:35:05;;;;;;;5.30;2.10;;;;;;;21.63;100.00;96389.41;5077632;28;20035;-83
2023/06/28 00:37:32;;;;;;;5.90;2.30;;;;;;;21.81;100.00;96389.34;5081018;28;20068;-83
2023/06/28 00:39:58;;;;;;;12.52;5.88;;;;;;;21.77;100.00;96396.22;5106406;27;20045;-83
2023/06/28 00:42:23;;;;;;;4.88;2.58;;;;;;;21.31;100.00;96391.38;5086330;28;20077;-83
2023/06/28 00:44:49;;;;;;;7.05;2.53;;;;;;;21.45;100.00;96400.09;5083856;28;20431;-83
2023/06/28 00:47:15;;;;;;;6.28;2.08;;;;;;;21.45;100.00;96400.91;5111943;27;20034;-83
2023/06/28 00:49:43;;;;;;;6.65;2.45;;;;;;;21.36;100.00;96412.94;5082330;28;20023;-83
2023/06/28 00:52:10;;;;;;;9.25;2.47;;;;;;;21.41;100.00;96421.94;5088453;27;20024;-82
2023/06/28 00:54:37;;;;;;;7.13;2.47;;;;;;;21.40;100.00;96428.34;5080635;28;20034;-83
2023/06/28 00:57:04;;;;;;;8.87;2.67;;;;;;;21.18;100.00;96435.94;5092268;27;20027;-83
2023/06/28 00:59:30;;;;;;;7.53;2.63;;;;;;;20.91;100.00;96435.38;5108148;27;20025;-83
2023/06/28 01:01:56;;;;;;;7.37;2.50;;;;;;;20.55;100.00;96435.25;5103396;27;20027;-84
2023/06/28 01:04:22;;;;;;;5.17;2.50;;;;;;;20.60;100.00;96428.25;5091069;28;20020;-83
2023/06/28 01:06:54;;;;;;;6.53;3.13;;;;;;;20.57;100.00;96438.53;5091255;28;20031;-83
2023/06/28 01:09:21;;;;;;;8.90;2.90;;;;;;;21.02;100.00;96430.34;5098603;28;20023;-83
2023/06/28 01:11:52;;;;;;;8.13;3.23;;;;;;;20.63;100.00;96424.31;5079212;28;20528;-84
2023/06/28 01:14:19;;;;;;;8.50;3.50;;;;;;;21.11;100.00;96431.72;5091270;28;20113;-82
2023/06/28 01:16:49;;;;;;;5.40;2.63;;;;;;;20.52;100.00;96428.50;5104357;27;20019;-83
2023/06/28 01:19:16;;;;;;;8.27;3.40;;;;;;;20.23;100.00;96427.25;5093135;28;20024;-83
2023/06/28 01:21:45;;;;;;;6.67;2.73;;;;;;;20.34;100.00;96437.22;5093867;28;20035;-83
2023/06/28 01:24:12;;;;;;;4.93;2.60;;;;;;;20.49;100.00;96428.94;5103687;27;20031;-83
2023/06/28 01:26:39;;;;;;;8.47;2.90;;;;;;;20.37;100.00;96431.47;5084751;27;20023;-84
2023/06/28 01:29:05;;;;;;;7.20;2.70;;;;;;;20.16;100.00;96431.81;5086948;27;20122;-83
2023/06/28 01:31:31;;;;;;;7.10;3.20;;;;;;;19.96;100.00;96424.72;5087651;28;20102;-84
2023/06/28 01:33:57;;;;;;;8.57;3.90;;;;;;;19.40;100.00;96425.34;5097114;28;20016;-83
2023/06/28 01:36:24;;;;;;;6.07;3.60;;;;;;;19.52;100.00;96417.50;5079653;27;20051;-83
2023/06/28 01:38:51;;;;;;;8.00;3.27;;;;;;;19.49;100.00;96423.28;5101922;28;20680;-83
2023/06/28 01:41:17;;;;;;;7.83;3.50;;;;;;;19.31;100.00;96423.91;5079864;28;20024;-83
2023/06/28 01:43:43;;;;;;;11.57;3.47;;;;;;;19.27;100.00;96420.03;5078133;28;20407;-83
2023/06/28 01:46:10;;;;;;;7.23;3.10;;;;;;;19.13;100.00;96415.78;5081651;27;20024;-84
2023/06/28 01:48:35;;;;;;;6.30;3.17;;;;;;;19.27;100.00;96414.69;5102721;27;20054;-84
2023/06/28 01:51:01;;;;;;;7.00;3.60;;;;;;;19.42;100.00;96409.13;5091525;28;20059;-83
2023/06/28 01:53:27;;;;;;;10.83;4.03;;;;;;;19.43;100.00;96408.91;5105477;28;20471;-84
2023/06/28 01:55:52;;;;;;;6.80;3.57;;;;;;;19.34;100.00;96406.69;5111793;27;20434;-83
2023/06/28 01:58:18;;;;;;;8.30;3.57;;;;;;;19.29;100.00;96415.31;5082181;28;20030;-84
2023/06/28 02:00:44;;;;;;;8.10;3.00;;;;;;;19.41;100.00;96410.97;5109439;27;20015;-83
2023/06/28 02:03:09;;;;;;;7.03;3.47;;;;;;;19.59;100.00;96415.63;5113904;27;20037;-83
2023/06/28 02:05:35;;;;;;;8.27;3.37;;;;;;;19.60;100.00;96411.13;5107393;27;20464;-84
2023/06/28 02:08:04;;;;;;;9.27;3.90;;;;;;;19.73;100.00;96401.22;5090324;27;20023;-85
2023/06/28 02:10:31;;;;;;;8.23;3.57;;;;;;;19.86;100.00;96408.34;5085648;28;20129;-84
2023/06/28 02:12:56;;;;;;;7.67;3.10;;;;;;;19.16;100.00;96412.69;5098671;28;20020;-84
2023/06/28 02:15:22;;;;;;;8.60;3.77;;;;;;;19.52;100.00;96415.66;5124522;27;20035;-84
2023/06/28 02:17:50;;;;;;;26.20;4.43;;;;;;;19.51;100.00;96411.34;5106854;28;20016;-85
2023/06/28 02:20:16;;;;;;;7.73;3.50;;;;;;;19.50;100.00;96401.69;5082313;27;20410;-84
2023/06/28 02:22:41;;;;;;;8.47;3.70;;;;;;;19.44;100.00;96404.41;5092863;28;20031;-84
2023/06/28 02:25:07;;;;;;;9.40;3.43;;;;;;;19.44;100.00;96397.22;5101543;28;20069;-85
2023/06/28 02:27:33;;;;;;;7.53;3.57;;;;;;;19.25;100.00;96395.44;5093347;28;20023;-84
2023/06/28 02:29:58;;;;;;;6.53;3.07;;;;;;;19.17;100.00;96395.66;5075071;28;20020;-84
2023/06/28 02:32:24;;;;;;;8.43;3.23;;;;;;;19.30;100.00;96400.97;5096455;27;20181;-85
2023/06/28 02:34:50;;;;;;;5.43;2.83;;;;;;;19.18;100.00;96402.63;5091847;28;20059;-84
2023/06/28 02:37:16;;;;;;;8.13;3.03;;;;;;;19.20;100.00;96397.91;5080171;28;20051;-84
2023/06/28 02:39:41;;;;;;;6.07;2.90;;;;;;;18.98;100.00;96384.84;5080482;28;20031;-84
2023/06/28 02:42:07;;;;;;;8.27;3.47;;;;;;;19.24;100.00;96391.94;5071432;27;20030;-85
2023/06/28 02:44:36;;;;;;;12.40;3.17;;;;;;;19.06;100.00;96394.47;5042060;28;20473;-84
2023/06/28 02:47:02;;;;;;;7.90;3.50;;;;;;;19.32;100.00;96390.91;5029720;28;20110;-84
2023/06/28 02:49:28;;;;;;;9.43;3.13;;;;;;;19.57;100.00;96388.34;5049403;28;20030;-84
2023/06/28 02:51:54;;;;;;;7.00;3.17;;;;;;;19.66;100.00;96388.97;5047862;28;20102;-84
2023/06/28 02:54:19;;;;;;;8.30;3.43;;;;;;;19.07;100.00;96391.56;5051050;27;20118;-84
2023/06/28 02:56:46;;;;;;;6.90;3.40;;;;;;;18.98;100.00;96384.00;5035786;28;20038;-84
2023/06/28 02:59:14;;;;;;;7.30;3.37;;;;;;;18.94;100.00;96385.44;5054770;28;20357;-84
2023/06/28 03:01:41;;;;;;;9.33;3.47;;;;;;;18.80;100.00;96384.66;4993378;28;20015;-84
2023/06/28 03:04:07;;;;;;;7.03;3.40;;;;;;;18.67;100.00;96387.31;5016846;27;20416;-81
2023/06/28 03:06:34;;;;;;;8.50;3.43;;;;;;;18.75;100.00;96374.63;4942450;28;20012;-84
2023/06/28 03:09:00;;;;;;;6.07;3.40;;;;;;;18.68;100.00;96387.13;4941097;28;20032;-83
2023/06/28 03:11:26;;;;;;;12.83;4.20;;;;;;;18.43;100.00;96378.91;4960078;28;20034;-84
2023/06/28 03:13:51;;;;;;;7.77;3.53;;;;;;;18.44;100.00;96375.22;4969876;28;20054;-84
2023/06/28 03:16:17;;;;;;;8.57;3.60;;;;;;;18.29;100.00;96371.97;5018302;28;20221;-84
2023/06/28 03:18:49;;;;;;;7.13;3.47;;;;;;;18.65;100.00;96376.88;4982478;28;20035;-85
2023/06/28 03:21:15;;;;;;;11.23;4.05;;;;;;;18.54;100.00;96370.31;4982539;28;20027;-83
2023/06/28 03:23:41;;;;;;;8.27;3.43;;;;;;;18.89;100.00;96377.28;4999572;28;20066;-84
2023/06/28 03:26:08;;;;;;;6.57;3.53;;;;;;;19.42;100.00;96383.28;4984746;28;20024;-85
2023/06/28 03:28:34;;;;;;;6.07;3.63;;;;;;;19.43;100.00;96395.56;4981627;28;20051;-84
2023/06/28 03:31:01;;;;;;;6.90;3.80;;;;;;;19.40;100.00;96400.50;5037560;28;20577;-84
2023/06/28 03:33:29;;;;;;;6.60;3.43;;;;;;;19.36;100.00;96399.31;5030931;28;20802;-84
2023/06/28 03:35:54;;;;;;;5.43;3.53;;;;;;;19.84;100.00;96390.91;5021741;28;20107;-84
2023/06/28 03:38:20;;;;;;;7.00;3.73;;;;;;;19.57;100.00;96390.19;5052593;28;20027;-83
2023/06/28 03:40:45;;;;;;;7.90;4.10;;;;;;;19.78;100.00;96392.56;5018592;28;20031;-84
2023/06/28 03:43:11;;;;;;;6.23;3.63;;;;;;;19.62;100.00;96385.88;5035161;28;20105;-84
2023/06/28 03:45:36;;;;;;;8.37;3.50;;;;;;;19.66;100.00;96394.28;5019150;28;21583;-84
2023/06/28 03:48:02;;;;;;;6.03;3.23;;;;;;;19.71;100.00;96389.13;5020402;28;20598;-83
2023/06/28 03:50:28;;;;;;;9.23;4.40;;;;;;;19.70;100.00;96390.16;5033454;28;20510;-84
2023/06/28 03:52:54;;;;;;;10.43;3.67;;;;;;;19.67;100.00;96382.59;5019447;28;20024;-84
2023/06/28 03:55:20;;;;;;;8.27;3.90;;;;;;;19.76;100.00;96390.13;5034069;28;20031;-82
2023/06/28 03:57:45;;;;;;;9.30;4.37;;;;;;;19.53;100.00;96385.28;5022319;28;20031;-84
2023/06/28 04:00:12;;;;;;;8.50;3.70;;;;;;;19.82;100.00;96393.81;5017030;28;20450;-84
2023/06/28 04:02:40;;;;;;;7.30;3.67;;;;;;;19.71;100.00;96397.13;5040436;28;20035;-83
2023/06/28 04:05:06;;;;;;;6.20;3.60;;;;;;;19.72;100.00;96404.13;5062787;28;20045;-85
2023/06/28 04:07:31;;;;;;;10.03;3.80;;;;;;;19.64;100.00;96393.69;5074412;28;20023;-83
2023/06/28 04:09:57;;;;;;;8.70;3.80;;;;;;;19.70;100.00;96396.31;5073116;28;20028;-83
2023/06/28 04:12:23;;;;;;;6.90;3.60;;;;;;;19.89;100.00;96399.13;5071061;28;20101;-84
2023/06/28 04:14:49;;;;;;;7.90;4.10;;;;;;;19.84;100.00;96396.25;5074056;28;20076;-82
2023/06/28 04:17:14;;;;;;;9.90;4.23;;;;;;;19.93;100.00;96408.31;5092577;28;20048;-86
2023/06/28 04:19:40;;;;;;;9.33;4.00;;;;;;;19.96;100.00;96406.03;5074850;28;20124;-86
2023/06/28 04:22:06;;;;;;;7.67;4.13;;;;;;;19.68;100.00;96402.88;5075674;28;20085;-86
2023/06/28 04:24:31;;;;;;;7.07;4.13;;;;;;;19.74;100.00;96407.38;5069804;28;20019;-85
2023/06/28 04:27:00;;;;;;;7.83;4.00;;;;;;;19.73;100.00;96408.41;5086828;28;20012;-85
2023/06/28 04:29:27;;;;;;;6.97;3.53;;;;;;;19.93;100.00;96406.47;5081550;28;20046;-86
2023/06/28 04:31:52;;;;;;;6.07;3.87;;;;;;;19.79;100.00;96412.91;5081591;28;20023;-86
2023/06/28 04:34:19;;;;;;;9.53;4.63;;;;;;;19.75;100.00;96414.34;5087432;28;20024;-85
2023/06/28 04:36:45;;;;;;;8.43;4.03;;;;;;;20.11;100.00;96407.59;5043711;28;20020;-86
2023/06/28 04:39:12;;;;;;;9.83;4.27;;;;;;;20.01;100.00;96413.41;5041787;28;20237;-84
2023/06/28 04:41:37;;;;;;;9.13;3.80;;;;;;;19.94;100.00;96413.44;5044462;28;21532;-85
2023/06/28 04:44:03;;;;;;;7.83;4.20;;;;;;;19.62;100.00;96415.22;5059751;28;20031;-86
2023/06/28 04:46:29;;;;;;;10.13;3.83;;;;;;;19.30;100.00;96417.78;5036822;28;20502;-85
2023/06/28 04:48:57;;;;;;;7.17;4.33;;;;;;;19.48;100.00;96413.59;5021100;28;20030;-86
2023/06/28 04:51:24;;;;;;;10.70;4.20;;;;;;;19.55;100.00;96417.91;5053075;28;20525;-85
2023/06/28 04:53:49;;;;;;;10.40;3.87;;;;;;;19.77;100.00;96404.28;5039527;28;20028;-86
2023/06/28 04:56:15;;;;;;;6.90;4.10;;;;;;;19.96;100.00;96408.72;5060123;28;20028;-86
2023/06/28 04:58:41;;;;;;;8.73;3.87;;;;;;;19.94;100.00;96408.09;5046618;28;20034;-86
2023/06/28 05:01:10;;;;;;;10.43;4.20;;;;;;;19.17;100.00;96417.81;5065109;28;20027;-83
2023/06/28 05:03:38;;;;;;;8.17;4.07;;;;;;;19.40;100.00;96417.34;5050182;28;20110;-86
2023/06/28 05:06:09;;;;;;;8.13;4.73;;;;;;;19.68;100.00;96413.56;5098049;28;20033;-86
2023/06/28 05:08:35;;;;;;;8.67;4.10;;;;;;;19.45;100.00;96417.53;5084212;28;20024;-86
2023/06/28 05:11:02;;;;;;;8.40;4.37;;;;;;;19.41;100.00;96405.63;5080573;28;20028;-86
2023/06/28 05:13:27;;;;;;;9.67;4.50;;;;;;;19.49;100.00;96415.25;5081569;28;20032;-86
2023/06/28 05:15:53;;;;;;;6.43;4.07;;;;;;;19.61;100.00;96416.22;5097172;28;20039;-86
2023/06/28 05:18:19;;;;;;;8.80;4.23;;;;;;;19.15;100.00;96419.03;5093253;27;20019;-86
2023/06/28 05:20:45;;;;;;;8.73;4.53;;;;;;;19.18;100.00;96422.13;5087424;28;20108;-87
2023/06/28 05:23:28;;;;;;;14.07;6.10;;;;;;;19.58;100.00;96418.50;5093323;28;20081;-86
2023/06/28 05:25:54;;;;;;;7.27;4.50;;;;;;;19.69;100.00;96410.69;5079199;28;20104;-86
2023/06/28 05:28:24;;;;;;;8.83;4.20;;;;;;;19.61;100.00;96410.88;5082287;27;20030;-86
2023/06/28 05:30:49;;;;;;;7.87;4.27;;;;;;;19.76;100.00;96405.34;5088437;28;20020;-86
2023/06/28 05:33:15;;;;;;;10.40;5.10;;;;;;;19.72;100.00;96410.28;5086176;27;20118;-87
2023/06/28 05:35:50;;;;;;;10.33;5.90;;;;;;;19.81;100.00;96408.16;5099851;28;20084;-81
2023/06/28 05:38:17;;;;;;;7.33;4.33;;;;;;;19.83;100.00;96415.97;5107792;27;20480;-85
2023/06/28 05:40:43;;;;;;;7.97;4.90;;;;;;;19.85;100.00;96409.41;5081844;28;20020;-84
2023/06/28 05:43:09;;;;;;;7.83;4.87;;;;;;;20.12;100.00;96406.53;5095376;28;20053;-85
2023/06/28 05:45:35;;;;;;;10.00;4.80;;;;;;;20.34;100.00;96418.53;5106030;28;20023;-84
2023/06/28 05:48:01;;;;;;;8.13;4.83;;;;;;;20.39;100.00;96410.69;5112656;27;20027;-84
2023/06/28 05:50:27;;;;;;;10.77;5.03;;;;;;;20.24;100.00;96419.00;5072591;28;20051;-85
2023/06/28 05:52:52;;;;;;;10.30;5.20;;;;;;;20.63;100.00;96416.31;5098460;28;20076;-85
2023/06/28 05:55:18;;;;;;;10.10;5.47;;;;;;;20.38;100.00;96409.03;5075289;28;20110;-85
2023/06/28 05:57:47;;;;;;;9.33;4.93;;;;;;;20.61;100.00;96413.84;5111879;28;20042;-85
2023/06/28 06:00:13;;;;;;;8.93;5.27;;;;;;;20.39;100.00;96409.88;5107072;27;20058;-84
2023/06/28 06:02:39;;;;;;;10.25;5.05;;;;;;;20.37;100.00;96423.44;5094885;28;20039;-84
2023/06/28 06:05:05;;;;;;;10.20;5.10;;;;;;;20.54;100.00;96414.94;5105590;27;20279;-84
2023/06/28 06:07:32;;;;;;;8.32;4.55;;;;;;;20.74;100.00;96423.59;5114940;27;20015;-84
2023/06/28 06:09:57;;;;;;;6.93;4.03;;;;;;;21.03;100.00;96422.13;5096375;28;20026;-85
2023/06/28 06:12:26;;;;;;;9.53;4.83;;;;;;;20.67;100.00;96417.50;5083669;27;20023;-85
2023/06/28 06:14:51;;;;;;;7.95;4.05;;;;;;;20.90;100.00;96412.38;5085480;28;20692;-85
2023/06/28 06:17:18;;;;;;;7.30;3.97;;;;;;;20.95;100.00;96417.03;5109888;27;20080;-85
2023/06/28 06:19:43;;;;;;;8.10;3.90;;;;;;;20.97;100.00;96416.84;5081814;27;20029;-85
2023/06/28 06:22:09;;;;;;;8.02;3.70;;;;;;;20.82;100.00;96420.66;5087261;28;20032;-84
2023/06/28 06:24:35;;;;;;;7.00;3.50;;;;;;;21.08;100.00;96408.88;5090201;27;20016;-84
2023/06/28 06:27:00;;;;;;;9.73;4.18;;;;;;;20.88;100.00;96414.44;5097755;27;20015;-85
2023/06/28 06:29:26;;;;;;;8.43;3.83;;;;;;;20.62;100.00;96420.00;5111838;27;20682;-85
2023/06/28 06:31:51;;;;;;;6.93;3.97;;;;;;;20.95;100.00;96422.38;5094876;28;20031;-85
2023/06/28 06:34:17;;;;;;;7.00;4.20;;;;;;;21.22;100.00;96420.25;5109675;27;20759;-85
2023/06/28 06:36:42;;;;;;;11.15;4.20;;;;;;;21.12;100.00;96426.13;5095711;27;20027;-83
2023/06/28 06:39:08;;;;;;;9.23;3.75;;;;;;;20.82;100.00;96427.84;5097937;28;20028;-85
2023/06/28 06:41:41;;;;;;;6.95;3.80;;;;;;;21.62;100.00;96425.22;5117621;27;20015;-86
2023/06/28 06:44:10;;;;;;;12.90;4.07;;;;;;;21.67;100.00;96422.69;5086628;27;20027;-85
2023/06/28 06:46:36;;;;;;;7.03;3.55;;;;;;;21.68;100.00;96423.50;5107315;27;20072;-85
2023/06/28 06:49:02;;;;;;;8.45;3.65;;;;;;;22.09;100.00;96420.06;5105767;28;20051;-85
2023/06/28 06:51:27;;;;;;;12.25;4.05;;;;;;;21.92;100.00;96419.91;5108555;28;20058;-85
2023/06/28 06:53:53;;;;;;;11.05;3.85;;;;;;;22.31;100.00;96429.28;5081164;28;20390;-85
2023/06/28 06:56:22;;;;;;;6.60;3.58;;;;;;;21.80;100.00;96432.44;5119608;27;20667;-85
2023/06/28 06:58:48;;;;;;;7.03;3.60;;;;;;;22.47;100.00;96427.81;5073483;28;20050;-85
2023/06/28 07:01:14;;;;;;;8.43;3.90;;;;;;;22.78;100.00;96429.38;5107326;28;20794;-85
2023/06/28 07:03:39;;;;;;;10.68;3.88;;;;;;;22.57;100.00;96435.28;5089990;27;20084;-84
2023/06/28 07:06:11;;;;;;;8.18;3.25;;;;;;;22.74;100.00;96435.44;5103793;27;20072;-85
2023/06/28 07:08:37;;;;;;;6.38;3.30;;;;;;;22.88;100.00;96434.16;5107618;27;20480;-85
2023/06/28 07:11:02;;;;;;;7.15;3.78;;;;;;;22.99;100.00;96432.56;5078642;28;20039;-85
2023/06/28 07:13:28;;;;;;;6.80;3.25;;;;;;;23.12;100.00;96432.34;5099044;28;20023;-85
2023/06/28 07:15:54;;;;;;;9.80;4.13;;;;;;;22.90;100.00;96431.25;5086822;28;20024;-84
2023/06/28 07:18:20;;;;;;;9.43;3.30;;;;;;;23.67;100.00;96437.28;5110062;27;20033;-85
2023/06/28 07:20:46;;;;;;;6.95;3.38;;;;;;;23.35;100.00;96436.88;5081814;28;20029;-85
2023/06/28 07:23:11;;;;;;;9.80;3.33;;;;;;;23.98;100.00;96432.56;5092405;27;20031;-85
2023/06/28 07:25:38;;;;;;;7.80;2.88;;;;;;;23.28;100.00;96428.13;5114041;27;20081;-85
2023/06/28 07:28:03;;;;;;;5.65;3.03;;;;;;;23.10;100.00;96434.41;5092042;27;20061;-85
2023/06/28 07:30:30;;;;;;;7.78;2.60;;;;;;;23.66;100.00;96435.66;5084159;28;20055;-85
2023/06/28 07:32:56;;;;;;;6.85;3.42;;;;;;;23.40;100.00;96436.97;5109066;27;20031;-85
2023/06/28 07:35:21;;;;;;;9.57;3.67;;;;;;;23.87;100.00;96434.22;5093286;28;20113;-84
2023/06/28 07:37:52;;;;;;;6.57;3.20;;;;;;;24.05;100.00;96435.13;5080405;28;20470;-86
2023/06/28 07:40:18;;;;;;;8.23;2.72;;;;;;;24.29;100.00;96438.50;5078531;28;20028;-86
2023/06/28 07:42:44;;;;;;;5.28;2.80;;;;;;;24.25;100.00;96427.44;5070245;28;20436;-85
2023/06/28 07:45:10;;;;;;;7.57;2.90;;;;;;;24.51;100.00;96435.97;5102225;27;20076;-85
2023/06/28 07:47:36;;;;;;;5.97;2.90;;;;;;;24.92;100.00;96424.00;5107953;28;20031;-85
2023/06/28 07:50:02;;;;;;;7.75;3.20;;;;;;;24.52;100.00;96426.84;5095301;27;20537;-85
2023/06/28 07:52:27;;;;;;;6.72;2.78;;;;;;;24.28;98.77;96434.16;5095141;27;20027;-85
2023/06/28 07:54:53;;;;;;;8.65;2.40;;;;;;;24.81;97.33;96425.69;5098322;27;20023;-86
2023/06/28 07:57:19;;;;;;;6.70;2.88;;;;;;;24.60;92.87;96432.63;5119983;27;20038;-86
2023/06/28 07:59:44;;;;;;;8.15;2.90;;;;;;;24.68;97.09;96434.09;5083043;28;20443;-84
2023/06/28 08:02:10;;;;;;;6.38;2.70;;;;;;;25.31;92.06;96432.13;5071286;28;20040;-86
2023/06/28 08:04:35;;;;;;;7.25;2.22;;;;;;;24.77;95.33;96434.50;5079694;27;20035;-85
2023/06/28 08:07:01;;;;;;;6.05;2.33;;;;;;;25.11;88.61;96432.63;5085753;28;20027;-85
2023/06/28 08:09:26;;;;;;;8.27;2.72;;;;;;;25.70;87.36;96432.94;5126104;27;20473;-85
2023/06/28 08:11:52;;;;;;;7.18;2.42;;;;;;;25.10;91.53;96431.00;5083285;28;20488;-84
2023/06/28 08:14:18;;;;;;;6.60;2.53;;;;;;;25.52;87.59;96427.84;5116164;27;20020;-85
2023/06/28 08:16:45;;;;;;;10.35;3.42;;;;;;;25.76;86.28;96425.75;5086734;28;20030;-85
2023/06/28 08:19:13;;;;;;;5.85;2.20;;;;;;;26.60;78.57;96419.94;5080809;28;20020;-86
2023/06/28 08:21:38;;;;;;;6.35;2.45;;;;;;;26.01;83.77;96426.06;5105654;28;20030;-85
2023/06/28 08:24:04;;;;;;;6.32;2.53;;;;;;;26.42;78.20;96422.97;5092819;28;20028;-85
2023/06/28 08:26:30;;;;;;;7.32;2.50;;;;;;;27.43;70.72;96428.41;5099637;28;20023;-86
2023/06/28 08:28:55;;;;;;;6.55;3.00;;;;;;;26.67;77.89;96425.13;5094275;28;20027;-85
2023/06/28 08:31:21;;;;;;;8.70;2.25;;;;;;;26.93;73.87;96418.84;5110939;28;20032;-82
2023/06/28 08:33:46;;;;;;;4.75;2.10;;;;;;;26.00;74.50;96424.44;5097480;28;20430;-85
2023/06/28 08:36:12;;;;;;;6.93;2.70;;;;;;;28.00;67.78;96420.53;5076481;28;20566;-85
2023/06/28 08:38:37;;;;;;;9.82;3.50;;;;;;;27.34;66.56;96421.84;5103595;28;20027;-85
2023/06/28 08:41:03;;;;;;;7.10;3.33;;;;;;;27.86;63.44;96426.44;5092755;28;20023;-86
2023/06/28 08:43:29;;;;;;;8.57;2.42;;;;;;;27.50;66.46;96428.97;5090919;28;20481;-86
2023/06/28 08:45:54;;;;;;;7.53;2.40;;;;;;;27.65;68.93;96419.31;5111367;28;20024;-86
2023/06/28 08:48:20;;;;;;;6.53;2.42;;;;;;;27.91;61.71;96410.25;5103785;27;20015;-85
2023/06/28 08:50:46;;;;;;;7.25;2.10;;;;;;;28.22;61.97;96418.44;5089835;28;20016;-85
2023/06/28 08:53:19;;;;;;;8.18;2.38;;;;;;;29.74;52.66;96410.56;5099326;27;20071;-85
2023/06/28 08:55:47;;;;;;;7.68;3.05;;;;;;;30.54;47.66;96403.06;5127144;27;20023;-86
2023/06/28 08:58:12;;;;;;;6.75;2.58;;;;;;;30.94;44.01;96405.78;5086279;27;20028;-86
2023/06/28 09:00:41;;;;;;;4.05;1.98;;;;;;;30.45;44.78;96404.78;5107590;27;20525;-86
2023/06/28 09:03:10;;;;;;;6.57;2.67;;;;;;;30.79;46.19;96403.22;5097597;27;20081;-86
2023/06/28 09:05:36;;;;;;;7.05;2.63;;;;;;;30.51;45.50;96391.97;5085630;28;20063;-86
2023/06/28 09:08:03;;;;;;;4.75;1.95;;;;;;;29.49;50.94;96403.31;5080605;28;20481;-86
2023/06/28 09:10:29;;;;;;;5.15;2.50;;;;;;;28.33;56.43;96403.03;5080928;27;20023;-86
2023/06/28 09:12:55;;;;;;;6.75;3.03;;;;;;;29.10;52.41;96399.31;5075192;28;20028;-86
2023/06/28 09:15:22;;;;;;;6.72;2.50;;;;;;;29.57;49.46;96400.00;5098408;27;20472;-86
2023/06/28 09:17:48;;;;;;;7.63;2.63;;;;;;;29.79;46.83;96397.78;5103197;28;20034;-86
2023/06/28 09:20:21;;;;;;;6.57;2.20;;;;;;;29.29;44.70;96399.56;5095954;28;20020;-86
2023/06/28 09:22:59;;;;;;;6.55;2.22;;;;;;;30.00;44.51;96397.69;5077784;28;20034;-85
2023/06/28 09:25:27;;;;;;;5.63;2.40;;;;;;;30.35;44.00;96394.00;5092981;27;20472;-86
2023/06/28 09:27:56;;;;;;;6.10;2.65;;;;;;;29.96;42.62;96400.16;5107983;27;20113;-86
2023/06/28 09:30:41;;;;;;;4.40;2.15;;;;;;;30.24;42.86;96400.56;5102560;28;20389;-85
2023/06/28 09:33:09;;;;;;;5.35;2.30;;;;;;;30.31;41.65;96401.06;5096198;27;20027;-86
2023/06/28 09:35:38;;;;;;;4.97;2.35;;;;;;;31.06;38.65;96392.63;5082983;28;20023;-85
2023/06/28 09:38:08;;;;;;;6.07;2.35;;;;;;;31.79;38.11;96398.91;5095784;27;20106;-86
2023/06/28 09:40:34;;;;;;;7.45;2.47;;;;;;;30.97;40.08;96405.22;5081129;27;20110;-86
2023/06/28 09:43:00;;;;;;;4.53;2.25;;;;;;;30.97;41.48;96405.22;5094007;28;20039;-85
2023/06/28 09:45:36;;;;;;;4.57;2.38;;;;;;;30.42;42.37;96399.91;5110169;27;20034;-86
2023/06/28 09:48:05;;;;;;;12.25;7.35;;;;;;;30.25;43.38;96394.06;5099472;28;20427;-85
2023/06/28 09:50:40;;;;;;;6.05;3.22;;;;;;;31.14;40.42;96383.84;5094315;28;20020;-85
2023/06/28 09:53:10;;;;;;;4.68;2.05;;;;;;;30.46;40.74;96383.88;5092474;27;20098;-86
2023/06/28 09:55:41;;;;;;;8.73;2.95;;;;;;;31.07;39.74;96388.81;5119508;27;20389;-85
2023/06/28 09:58:14;;;;;;;5.18;2.50;;;;;;;31.33;38.39;96380.44;5081020;28;20057;-86
2023/06/28 10:00:45;;;;;;;6.63;2.30;;;;;;;31.40;39.78;96387.16;5101184;27;20499;-86
2023/06/28 10:03:13;;;;;;;4.25;2.25;;;;;;;32.88;38.12;96388.97;5101825;28;20045;-85
2023/06/28 10:05:40;;;;;;;5.93;2.72;;;;;;;32.42;37.91;96387.78;5075244;28;20036;-85
2023/06/28 10:08:11;;;;;;;5.63;2.97;;;;;;;32.71;36.41;96381.34;5110925;27;20077;-84
2023/06/28 10:10:39;;;;;;;5.18;2.40;;;;;;;32.67;35.59;96380.34;5108672;28;20028;-85
2023/06/28 10:13:11;;;;;;;6.65;2.42;;;;;;;32.94;34.53;96382.31;5102228;27;20027;-85
2023/06/28 10:16:04;;;;;;;7.95;2.58;;;;;;;32.90;33.39;96384.84;5080400;28;20027;-84
2023/06/28 10:18:30;;;;;;;3.55;2.13;;;;;;;31.96;30.94;96393.03;5077539;27;20023;-86
2023/06/28 10:21:09;;;;;;;8.30;2.30;;;;;;;32.53;31.38;96380.25;5099323;27;20682;-85
2023/06/28 10:23:38;;;;;;;4.90;1.95;;;;;;;31.30;30.81;96381.00;5077589;27;20075;-86
2023/06/28 10:26:05;;;;;;;3.85;1.70;;;;;;;34.29;27.78;96369.34;5125541;27;20015;-85
2023/06/28 10:28:34;;;;;;;5.32;2.22;;;;;;;31.50;33.33;96378.06;5093460;27;20011;-85
2023/06/28 10:31:04;;;;;;;5.82;2.15;;;;;;;33.37;30.90;96365.75;5106575;27;20073;-85
2023/06/28 10:33:33;;;;;;;6.35;2.30;;;;;;;33.16;32.65;96373.50;5093052;27;20050;-85
2023/06/28 10:36:04;;;;;;;7.95;2.17;;;;;;;32.61;33.57;96380.41;5111792;27;20023;-85
2023/06/28 10:38:36;;;;;;;5.82;1.83;;;;;;;31.74;34.01;96371.81;5085347;28;20094;-90
2023/06/28 10:41:03;;;;;;;6.25;2.13;;;;;;;31.10;33.44;96371.94;5095738;28;20880;-83
2023/06/28 10:43:28;;;;;;;3.83;2.05;;;;;;;31.30;34.36;96370.13;5091753;28;20382;-83
2023/06/28 10:45:54;;;;;;;5.85;2.60;;;;;;;30.94;36.04;96381.34;5112259;27;20048;-81
2023/06/28 10:48:21;;;;;;;7.38;2.72;;;;;;;31.00;34.45;96377.47;5087366;27;20387;-81
2023/06/28 10:50:48;;;;;;;4.40;2.15;;;;;;;30.32;38.64;96378.28;5088680;28;20490;-81
2023/06/28 10:53:21;;;;;;;5.38;2.20;;;;;;;28.93;42.10;96379.00;5102905;27;20495;-83
2023/06/28 10:56:07;;;;;;;6.95;2.83;;;;;;;30.12;40.05;96376.47;5089643;27;20027;-81
2023/06/28 10:58:40;;;;;;;6.85;2.35;;;;;;;31.76;38.17;96372.31;5110189;27;20019;-81
2023/06/28 11:01:07;;;;;;;6.80;2.05;;;;;;;31.15;36.91;96373.78;5079135;28;20026;-81
2023/06/28 11:03:41;;;;;;;5.55;2.20;;;;;;;31.84;35.03;96368.97;5101336;28;20094;-81
2023/06/28 11:06:08;;;;;;;5.85;2.83;;;;;;;31.60;35.39;96364.34;5094695;28;20060;-81
2023/06/28 11:08:37;;;;;;;5.25;2.35;;;;;;;30.87;36.06;96361.84;5113854;27;20016;-82
2023/06/28 11:11:02;;;;;;;5.47;2.65;;;;;;;31.25;35.75;96362.81;5068296;28;20485;-82
2023/06/28 11:13:42;;;;;;;5.43;2.00;;;;;;;30.62;35.62;96360.13;5092347;28;20024;-82
2023/06/28 11:16:16;;;;;;;6.07;2.22;;;;;;;32.65;33.00;96355.31;5113848;27;20016;-81
2023/06/28 11:18:42;;;;;;;6.47;2.08;;;;;;;33.09;31.74;96349.38;5094466;28;20417;-81
2023/06/28 11:21:21;;;;;;;6.63;3.08;;;;;;;33.98;30.52;96348.16;5091636;28;20435;-82
2023/06/28 11:23:47;;;;;;;10.82;4.72;;;;;;;32.72;33.31;96361.16;5092072;28;20027;-81
2023/06/28 11:26:32;;;;;;;8.32;2.42;;;;;;;32.11;33.39;96357.47;5117970;27;20030;-82